Time;durP1;ratioP1;P1;durP2;ratioP2;P2;SDS_P1;SDS_P2;PMS_P1;PMS_P2;Temp;Humidity;BMP_temperature;BMP_pressure;BME280_temperature;BME280_humidity;BME280_pressure;Samples;Min_cycle;Max_cycle;Signal;HPM_P1;HPM_P2
2022/05/18 18:18:28;;;;;;;4.13;3.05;;;27.20;54.40;;;;;;5078782;27;20506;-67
2022/05/18 18:20:53;;;;;;;3.65;3.08;;;27.20;55.10;;;;;;5068845;28;20195;-70
2022/05/18 18:23:27;;;;;;;3.33;2.33;;;27.10;55.20;;;;;;5077464;28;20192;-65
2022/05/18 18:25:53;;;;;;;2.53;2.33;;;27.10;55.50;;;;;;5072947;28;20176;-66
2022/05/18 18:28:19;;;;;;;5.30;3.35;;;27.00;55.70;;;;;;5069389;28;20185;-65
2022/05/18 18:30:45;;;;;;;4.38;3.22;;;27.00;56.10;;;;;;5078210;28;20270;-67
2022/05/18 18:33:11;;;;;;;6.65;2.78;;;26.90;56.30;;;;;;5076778;28;20180;-68
2022/05/18 18:35:37;;;;;;;123.70;73.70;;;26.80;56.30;;;;;;5086237;28;20274;-66
2022/05/18 18:38:05;;;;;;;15.25;9.52;;;26.80;56.80;;;;;;5080901;28;20261;-68
2022/05/18 18:40:35;;;;;;;10.07;6.47;;;26.70;56.90;;;;;;5079764;28;20172;-69
2022/05/18 18:43:00;;;;;;;9.82;6.95;;;26.60;57.10;;;;;;5075208;28;20553;-69
2022/05/18 18:46:32;;;;;;;5.50;4.00;;;26.50;57.30;;;;;;5068697;28;20176;-67
2022/05/18 18:48:12;;;;;;;10.82;6.80;;;26.40;57.60;;;;;;5080310;28;20192;-68
2022/05/18 18:56:06;;;;;;;9.25;6.53;;;26.20;57.80;;;;;;5068836;28;20222;-68
2022/05/18 18:58:33;;;;;;;5.20;4.00;;;26.10;57.90;;;;;;5068323;28;20180;-67
2022/05/18 19:00:59;;;;;;;10.75;7.32;;;26.00;58.00;;;;;;5068424;28;20184;-67
2022/05/18 19:03:24;;;;;;;13.82;9.85;;;25.90;58.00;;;;;;5068616;28;20177;-67
2022/05/18 19:05:50;;;;;;;17.88;10.75;;;25.90;58.40;;;;;;5068427;28;20177;-67
2022/05/18 19:08:16;;;;;;;6.22;3.65;;;25.80;58.90;;;;;;5068408;28;20260;-67
2022/05/18 19:10:42;;;;;;;6.05;4.60;;;25.70;58.90;;;;;;5071634;28;20180;-68
2022/05/18 19:13:10;;;;;;;8.20;5.40;;;25.70;59.10;;;;;;5087548;28;20420;-67
2022/05/18 19:15:36;;;;;;;6.07;4.63;;;25.60;59.30;;;;;;5088363;28;20180;-68
2022/05/18 19:18:02;;;;;;;3.22;2.75;;;25.60;59.40;;;;;;5087766;28;20234;-68
2022/05/18 19:20:31;;;;;;;6.47;3.65;;;25.60;59.30;;;;;;5086055;28;20172;-67
2022/05/18 19:22:59;;;;;;;7.22;5.65;;;25.60;59.30;;;;;;5068062;28;20192;-69
2022/05/18 19:25:29;;;;;;;3.95;2.40;;;25.60;59.60;;;;;;5072600;28;20180;-69
2022/05/18 19:27:55;;;;;;;4.45;2.10;;;25.60;59.00;;;;;;5071039;28;20437;-68
2022/05/18 19:30:23;;;;;;;7.07;3.55;;;25.50;58.60;;;;;;5062139;28;20630;-68
2022/05/18 19:32:50;;;;;;;3.83;2.80;;;25.40;59.20;;;;;;5073276;28;20176;-68
2022/05/18 19:35:15;;;;;;;48.85;33.15;;;25.40;59.30;;;;;;5074047;28;20602;-67
2022/05/18 19:37:41;;;;;;;16.38;11.50;;;25.30;59.50;;;;;;5072730;28;20208;-68
2022/05/18 19:40:08;;;;;;;17.23;11.00;;;25.30;59.20;;;;;;5074538;28;20211;-67
2022/05/18 19:42:40;;;;;;;6.93;5.35;;;25.10;59.60;;;;;;5068486;28;20188;-68
2022/05/18 19:45:08;;;;;;;7.25;4.03;;;25.00;59.80;;;;;;5061192;28;20640;-68
2022/05/18 19:47:34;;;;;;;26.70;19.33;;;24.90;60.00;;;;;;5066047;28;20292;-68
2022/05/18 19:50:00;;;;;;;22.88;16.45;;;24.80;60.30;;;;;;5054492;28;20185;-68
2022/05/18 19:52:25;;;;;;;25.27;18.27;;;24.80;60.60;;;;;;5054130;28;20535;-68
2022/05/18 19:54:51;;;;;;;12.23;9.23;;;24.70;60.60;;;;;;5054485;28;20230;-67
2022/05/18 19:57:18;;;;;;;18.50;11.98;;;24.60;61.00;;;;;;5054112;28;20316;-68
2022/05/18 19:59:45;;;;;;;9.30;6.57;;;24.60;61.40;;;;;;5054100;28;20177;-68
2022/05/18 20:02:11;;;;;;;6.72;5.75;;;24.60;61.50;;;;;;5053763;28;20174;-68
2022/05/18 20:04:37;;;;;;;11.23;8.32;;;24.60;61.60;;;;;;5054066;28;20268;-68
2022/05/18 20:07:04;;;;;;;10.23;7.78;;;24.60;61.90;;;;;;5053371;28;20771;-68
2022/05/18 20:09:30;;;;;;;7.60;5.35;;;24.60;61.80;;;;;;5053921;28;20182;-68
2022/05/18 20:11:55;;;;;;;6.03;2.97;;;24.60;61.80;;;;;;5053636;28;20182;-68
2022/05/18 20:14:23;;;;;;;5.20;4.32;;;24.60;61.80;;;;;;5053367;28;20186;-68
2022/05/18 20:16:49;;;;;;;5.28;3.78;;;24.60;61.90;;;;;;5066340;28;20224;-68
2022/05/18 20:19:15;;;;;;;6.65;3.75;;;24.60;62.00;;;;;;5070242;28;20189;-68
2022/05/18 20:21:40;;;;;;;6.43;3.47;;;24.50;61.90;;;;;;5064591;28;20184;-69
2022/05/18 20:24:06;;;;;;;4.07;2.95;;;24.50;62.00;;;;;;5073269;28;20181;-69
2022/05/18 20:26:35;;;;;;;2.72;2.42;;;24.40;62.20;;;;;;5063902;28;20180;-68
2022/05/18 20:29:03;;;;;;;6.00;3.55;;;24.40;62.10;;;;;;5070729;28;20181;-68
2022/05/18 20:31:29;;;;;;;6.53;3.67;;;24.30;62.30;;;;;;5072747;28;20246;-67
2022/05/18 20:33:55;;;;;;;3.65;3.15;;;24.30;62.30;;;;;;5056361;28;20177;-67
2022/05/18 20:36:21;;;;;;;2.78;2.40;;;24.30;62.50;;;;;;5059499;28;20215;-67
2022/05/18 20:38:46;;;;;;;3.85;3.10;;;24.30;62.60;;;;;;5066443;28;20184;-67
2022/05/18 20:41:13;;;;;;;3.10;2.58;;;24.20;62.20;;;;;;5066010;28;20682;-67
2022/05/18 20:43:44;;;;;;;3.67;2.83;;;24.20;62.40;;;;;;5073393;28;20190;-67
2022/05/18 20:46:19;;;;;;;5.43;2.90;;;24.10;62.60;;;;;;5064250;28;20165;-67
2022/05/18 20:48:46;;;;;;;5.03;2.80;;;24.10;63.10;;;;;;5065790;28;20654;-67
2022/05/18 20:51:12;;;;;;;4.57;2.88;;;24.00;63.30;;;;;;5067772;28;20173;-67
2022/05/18 20:53:38;;;;;;;3.88;2.80;;;24.10;63.20;;;;;;5073078;28;20181;-67
2022/05/18 20:56:17;;;;;;;3.85;2.63;;;24.10;62.90;;;;;;5070617;28;20169;-67
2022/05/18 20:58:42;;;;;;;4.07;2.65;;;24.00;62.80;;;;;;5066211;28;20655;-67
2022/05/18 21:01:08;;;;;;;2.35;2.15;;;24.00;63.00;;;;;;5059691;28;20185;-67
2022/05/18 21:03:33;;;;;;;3.67;2.45;;;23.90;63.90;;;;;;5052126;28;20189;-67
2022/05/18 21:05:59;;;;;;;3.10;2.40;;;23.90;63.60;;;;;;5061054;28;21081;-66
2022/05/18 21:08:25;;;;;;;2.83;2.30;;;23.90;63.80;;;;;;5062471;28;20571;-67
2022/05/18 21:10:50;;;;;;;5.22;2.70;;;23.90;63.70;;;;;;5070816;28;20176;-67
2022/05/18 21:13:18;;;;;;;3.65;2.30;;;23.90;63.60;;;;;;5065125;28;20213;-67
2022/05/18 21:15:43;;;;;;;2.65;2.25;;;23.80;63.70;;;;;;5062443;28;20580;-68
2022/05/18 21:18:09;;;;;;;4.90;2.03;;;23.80;64.00;;;;;;5054619;28;20321;-67
2022/05/18 21:20:36;;;;;;;5.22;2.33;;;23.80;63.90;;;;;;5069271;28;20213;-67
2022/05/18 21:23:05;;;;;;;2.55;2.10;;;23.70;64.00;;;;;;5051464;28;20178;-67
2022/05/18 21:25:31;;;;;;;3.97;2.38;;;23.70;64.50;;;;;;5059452;28;20238;-67
2022/05/18 21:27:57;;;;;;;2.53;2.17;;;23.70;64.40;;;;;;5058417;28;20177;-67
2022/05/18 21:30:24;;;;;;;2.33;2.13;;;23.60;64.50;;;;;;5065640;28;20691;-67
2022/05/18 21:32:52;;;;;;;2.83;2.58;;;23.60;64.90;;;;;;5059642;28;20188;-67
2022/05/18 21:35:22;;;;;;;3.33;2.63;;;23.50;64.70;;;;;;5053454;28;20652;-67
2022/05/18 21:37:48;;;;;;;2.63;2.40;;;23.40;65.20;;;;;;5058288;28;20204;-67
2022/05/18 21:40:14;;;;;;;3.13;2.00;;;23.40;65.50;;;;;;5068376;28;20524;-68
2022/05/18 21:42:40;;;;;;;13.68;9.13;;;23.40;65.30;;;;;;5067903;28;20626;-67
2022/05/18 21:45:10;;;;;;;33.35;22.92;;;23.30;65.50;;;;;;5069693;28;20176;-67
2022/05/18 21:47:36;;;;;;;31.95;21.90;;;23.30;65.80;;;;;;5067322;28;20172;-67
2022/05/18 21:50:02;;;;;;;17.73;12.15;;;23.30;66.30;;;;;;5071156;28;20180;-67
2022/05/18 21:52:27;;;;;;;16.27;11.35;;;23.30;66.20;;;;;;5052831;28;20272;-68
2022/05/18 21:54:53;;;;;;;17.48;11.90;;;23.20;66.10;;;;;;5054546;28;20177;-66
2022/05/18 21:57:21;;;;;;;9.65;7.10;;;23.20;66.50;;;;;;5060299;28;20216;-66
2022/05/18 21:59:50;;;;;;;6.45;4.85;;;23.10;66.40;;;;;;5070772;28;20177;-66
2022/05/18 22:02:20;;;;;;;10.23;7.28;;;23.10;66.70;;;;;;5065456;28;20275;-67
2022/05/18 22:04:45;;;;;;;11.93;6.55;;;23.10;67.30;;;;;;5064570;28;20205;-67
2022/05/18 22:07:11;;;;;;;3.13;2.75;;;23.10;67.40;;;;;;5071522;28;20250;-66
2022/05/18 22:09:38;;;;;;;89.18;54.55;;;23.10;66.60;;;;;;5058566;28;20185;-67
2022/05/18 22:12:06;;;;;;;75.50;42.53;;;23.00;66.70;;;;;;5061529;28;20607;-66
2022/05/18 22:14:35;;;;;;;44.78;27.95;;;23.00;67.10;;;;;;5071498;28;20177;-66
2022/05/18 22:17:02;;;;;;;8.98;6.70;;;23.00;67.40;;;;;;5031513;28;20575;-66
2022/05/18 22:19:28;;;;;;;5.57;3.72;;;22.90;67.20;;;;;;5069582;28;20190;-66
2022/05/18 22:22:03;;;;;;;4.40;2.63;;;22.90;67.30;;;;;;5061377;28;20178;-67
2022/05/18 22:24:32;;;;;;;35.40;22.75;;;22.80;67.30;;;;;;5051339;28;20188;-67
2022/05/18 22:27:01;;;;;;;41.17;28.13;;;22.70;68.40;;;;;;5044490;28;20173;-67
2022/05/18 22:29:26;;;;;;;13.70;9.75;;;22.70;67.80;;;;;;5070195;28;20304;-67
2022/05/18 22:31:53;;;;;;;8.82;6.30;;;22.70;67.80;;;;;;5061055;28;20279;-67
2022/05/18 22:34:19;;;;;;;10.07;6.55;;;22.60;68.10;;;;;;5062535;28;20227;-67
2022/05/18 22:36:45;;;;;;;9.10;6.72;;;22.50;68.30;;;;;;5070040;28;20226;-67
2022/05/18 22:39:11;;;;;;;4.90;3.28;;;22.50;68.50;;;;;;5068193;28;20645;-67
2022/05/18 22:41:40;;;;;;;2.42;2.20;;;22.50;68.70;;;;;;5051752;28;20184;-68
2022/05/18 22:44:11;;;;;;;4.13;3.45;;;22.40;68.40;;;;;;5051112;28;20238;-67
2022/05/18 22:46:36;;;;;;;3.13;2.55;;;22.30;69.00;;;;;;5051819;28;20185;-67
2022/05/18 22:49:02;;;;;;;3.15;2.85;;;22.30;68.80;;;;;;5060146;28;20186;-68
2022/05/18 22:51:27;;;;;;;3.90;2.60;;;22.30;69.20;;;;;;5050849;28;20181;-67
2022/05/18 22:53:53;;;;;;;3.22;2.50;;;22.20;69.40;;;;;;5058351;28;20342;-65
2022/05/18 22:56:18;;;;;;;16.60;11.57;;;22.20;69.40;;;;;;5050941;28;20706;-67
2022/05/18 22:58:44;;;;;;;25.58;18.65;;;22.20;69.30;;;;;;5050851;28;20181;-67
2022/05/18 23:01:10;;;;;;;4.40;3.78;;;22.20;69.60;;;;;;5051241;28;20189;-67
2022/05/18 23:03:36;;;;;;;6.25;4.53;;;22.20;69.20;;;;;;5051801;28;20185;-67
2022/05/18 23:06:04;;;;;;;8.52;6.85;;;22.20;69.00;;;;;;5054911;28;20181;-66
2022/05/18 23:08:29;;;;;;;6.55;5.28;;;22.20;69.10;;;;;;5062764;28;20203;-67
2022/05/18 23:10:55;;;;;;;3.55;3.22;;;22.20;69.30;;;;;;5057738;28;20697;-67
2022/05/18 23:13:21;;;;;;;2.83;2.40;;;22.20;69.10;;;;;;5062330;28;20648;-67
2022/05/18 23:15:50;;;;;;;4.88;2.72;;;22.20;69.20;;;;;;5055288;28;20181;-67
2022/05/18 23:18:17;;;;;;;2.75;2.13;;;22.20;68.90;;;;;;5059876;28;20220;-67
2022/05/18 23:20:43;;;;;;;3.78;2.20;;;22.20;68.80;;;;;;5055730;28;20184;-67
2022/05/18 23:25:54;;;;;;;4.32;2.83;;;22.00;68.80;;;;;;5061668;28;20555;-67
2022/05/18 23:28:19;;;;;;;32.05;21.60;;;22.10;69.00;;;;;;5071893;28;20173;-66
2022/05/18 23:30:46;;;;;;;19.33;13.98;;;22.00;69.10;;;;;;5070832;28;20263;-67
2022/05/18 23:33:29;;;;;;;21.08;14.15;;;22.00;69.10;;;;;;5073240;28;20172;-67
2022/05/18 23:35:58;;;;;;;10.32;6.43;;;22.00;69.60;;;;;;5041306;28;20192;-67
2022/05/18 23:38:23;;;;;;;4.90;4.38;;;21.90;69.80;;;;;;5064606;28;20213;-67
2022/05/18 23:40:49;;;;;;;4.25;2.90;;;21.90;69.40;;;;;;5065852;28;20244;-67
2022/05/18 23:43:14;;;;;;;3.88;2.50;;;21.90;69.80;;;;;;5066511;28;20676;-67
2022/05/18 23:45:41;;;;;;;16.50;10.32;;;21.80;70.10;;;;;;5067874;28;20214;-67
2022/05/18 23:48:13;;;;;;;6.72;4.38;;;21.70;70.40;;;;;;5058758;28;20185;-66
2022/05/18 23:53:23;;;;;;;6.20;2.67;;;21.60;71.10;;;;;;5069414;28;20191;-67
2022/05/18 23:55:48;;;;;;;2.55;2.35;;;21.50;71.20;;;;;;5060835;28;20181;-67
2022/05/18 23:58:15;;;;;;;3.55;2.88;;;21.40;71.60;;;;;;5062724;28;20216;-67
